Time;durP1;ratioP1;P1;durP2;ratioP2;P2;SDS_P1;SDS_P2;PMS_P1;PMS_P2;Temp;Humidity;BMP_temperature;BMP_pressure;BME280_temperature;BME280_humidity;BME280_pressure;Samples;Min_cycle;Max_cycle;Signal;HPM_P1;HPM_P2
2022/08/13 00:01:17;;;;;;;;;;;;;;;24.63;53.22;100570.75;7405218;19;1533;-60
2022/08/13 00:03:48;;;;;;;;;;;;;;;24.63;53.27;100549.13;7403049;19;1852;-61
2022/08/13 00:06:25;;;;;;;;;;;;;;;24.56;53.61;100540.03;7405770;19;1536;-61
2022/08/13 00:08:54;;;;;;;;;;;;;;;24.67;53.26;100560.41;7405553;19;1503;-61
2022/08/13 00:14:04;;;;;;;;;;;;;;;24.64;53.20;100539.16;7404330;19;1636;-60
2022/08/13 00:16:32;;;;;;;;;;;;;;;24.69;53.03;100558.34;7405791;19;1552;-61
2022/08/13 00:19:04;;;;;;;;;;;;;;;24.65;52.89;100544.38;7406296;19;1628;-60
2022/08/13 00:21:32;;;;;;;;;;;;;;;24.65;52.87;100549.78;7405480;19;1354;-61
2022/08/13 00:24:00;;;;;;;;;;;;;;;24.61;53.27;100543.03;7404311;19;1861;-60
2022/08/13 00:26:31;;;;;;;;;;;;;;;24.61;52.98;100535.78;7403735;19;1488;-60
2022/08/13 00:29:00;;;;;;;;;;;;;;;24.62;53.01;100542.03;7405272;19;1306;-61
2022/08/13 00:31:30;;;;;;;;;;;;;;;24.63;53.25;100532.03;7405174;19;1693;-60
2022/08/13 00:33:58;;;;;;;;;;;;;;;24.63;53.01;100537.44;7405036;19;1672;-61
2022/08/13 00:36:34;;;;;;;;;;;;;;;24.58;53.13;100536.13;7404109;19;1661;-61
2022/08/13 00:39:02;;;;;;;;;;;;;;;24.64;52.95;100534.56;7404304;19;1612;-60
2022/08/13 00:41:42;;;;;;;;;;;;;;;24.60;52.86;100550.31;7405127;19;1495;-61
2022/08/13 00:44:12;;;;;;;;;;;;;;;24.60;52.98;100539.50;7404410;19;1860;-61
2022/08/13 00:46:41;;;;;;;;;;;;;;;24.61;52.75;100538.47;7404440;19;1613;-61
2022/08/13 00:49:08;;;;;;;;;;;;;;;24.59;53.06;100535.13;7404104;19;1547;-60
2022/08/13 00:51:40;;;;;;;;;;;;;;;24.59;53.15;100537.81;7404516;19;1633;-61
2022/08/13 00:54:10;;;;;;;;;;;;;;;24.61;52.74;100530.38;7404046;19;1547;-60
2022/08/13 00:56:39;;;;;;;;;;;;;;;24.60;52.65;100534.09;7403816;19;1722;-60
2022/08/13 00:59:13;;;;;;;;;;;;;;;24.59;53.11;100535.13;7404057;19;1499;-60
2022/08/13 01:01:41;;;;;;;;;;;;;;;24.59;53.18;100532.41;7404097;19;1554;-60
2022/08/13 01:04:11;;;;;;;;;;;;;;;24.59;53.36;100526.13;7404925;19;1872;-61
2022/08/13 01:06:42;;;;;;;;;;;;;;;24.61;53.18;100533.06;7402278;19;1718;-60
2022/08/13 01:09:12;;;;;;;;;;;;;;;24.61;53.02;100527.66;7403968;19;1527;-61
2022/08/13 01:11:41;;;;;;;;;;;;;;;24.60;53.13;100523.25;7404022;19;1667;-61
2022/08/13 01:14:10;;;;;;;;;;;;;;;24.61;53.22;100522.25;7407433;19;1633;-61
2022/08/13 01:16:39;;;;;;;;;;;;;;;24.59;52.91;100532.41;7412361;19;1728;-61
2022/08/13 01:19:09;;;;;;;;;;;;;;;24.62;53.30;100531.22;7412706;19;1016;-60
2022/08/13 01:21:42;;;;;;;;;;;;;;;24.60;53.04;100528.66;7410054;19;1724;-61
2022/08/13 01:24:11;;;;;;;;;;;;;;;24.61;53.09;100519.56;7410470;19;1838;-61
2022/08/13 01:26:40;;;;;;;;;;;;;;;24.61;52.96;100535.78;7410640;19;1673;-60
2022/08/13 01:29:09;;;;;;;;;;;;;;;24.60;52.95;100520.56;7411791;19;1531;-60
2022/08/13 01:31:39;;;;;;;;;;;;;;;24.60;52.84;100515.16;7408191;19;1453;-60
2022/08/13 01:34:07;;;;;;;;;;;;;;;24.61;52.91;100524.97;7410092;19;1759;-59
2022/08/13 01:36:36;;;;;;;;;;;;;;;24.57;52.85;100512.81;7409174;19;1526;-61
2022/08/13 01:39:08;;;;;;;;;;;;;;;24.57;53.12;100522.78;7410553;19;1413;-60
2022/08/13 01:41:36;;;;;;;;;;;;;;;24.60;52.93;100539.50;7410513;19;1650;-60
2022/08/13 01:44:06;;;;;;;;;;;;;;;24.55;53.06;100520.28;7409367;19;1861;-60
2022/08/13 01:50:28;;;;;;;;;;;;;;;24.52;52.77;100512.50;7411217;19;1531;-59
2022/08/13 01:52:07;;;;;;;;;;;;;;;24.58;53.11;100524.47;7411835;19;1525;-60
2022/08/13 01:54:39;;;;;;;;;;;;;;;24.56;52.62;100513.84;7410462;19;1527;-60
2022/08/13 01:57:11;;;;;;;;;;;;;;;24.55;52.89;100519.41;7409135;19;1533;-60
2022/08/13 01:59:41;;;;;;;;;;;;;;;24.55;52.89;100514.88;7409568;19;1577;-60
2022/08/13 02:02:11;;;;;;;;;;;;;;;24.56;52.86;100505.72;7402598;19;1346;-60
2022/08/13 02:04:41;;;;;;;;;;;;;;;24.57;52.77;100522.78;7408714;19;1842;-60
2022/08/13 02:07:11;;;;;;;;;;;;;;;24.55;52.79;100516.72;7407537;19;1768;-60
2022/08/13 02:09:44;;;;;;;;;;;;;;;24.58;52.65;100514.50;7409624;19;1530;-60
2022/08/13 02:12:13;;;;;;;;;;;;;;;24.56;52.72;100516.53;7408132;19;1315;-60
2022/08/13 02:14:43;;;;;;;;;;;;;;;24.57;52.67;100528.19;7408581;19;1270;-61
2022/08/13 02:17:24;;;;;;;;;;;;;;;24.54;52.54;100507.75;7408064;19;1507;-60
2022/08/13 02:19:54;;;;;;;;;;;;;;;24.55;52.88;100504.06;7407848;19;1317;-60
2022/08/13 02:22:22;;;;;;;;;;;;;;;24.53;52.93;100500.69;7408118;19;1442;-60
2022/08/13 02:24:55;;;;;;;;;;;;;;;24.53;52.63;100511.50;7405696;19;1853;-60
2022/08/13 02:27:24;;;;;;;;;;;;;;;24.54;52.87;100506.94;7408017;19;1368;-60
2022/08/13 02:29:55;;;;;;;;;;;;;;;24.51;52.96;100493.75;7408057;19;1452;-60
2022/08/13 02:32:24;;;;;;;;;;;;;;;24.52;52.81;100501.69;7409546;19;1189;-60
2022/08/13 02:34:54;;;;;;;;;;;;;;;24.54;52.64;100513.16;7409661;19;1503;-60
2022/08/13 02:37:24;;;;;;;;;;;;;;;24.54;52.81;100502.34;7403075;19;1607;-60
2022/08/13 02:39:55;;;;;;;;;;;;;;;24.52;52.67;100496.28;7408649;19;1567;-60
2022/08/13 02:42:22;;;;;;;;;;;;;;;24.53;52.61;100506.09;7407674;19;1335;-60
2022/08/13 02:44:52;;;;;;;;;;;;;;;24.50;52.84;100490.22;7408115;19;1853;-60
2022/08/13 02:47:20;;;;;;;;;;;;;;;24.52;52.75;100507.09;7405016;19;1800;-60
2022/08/13 02:49:51;;;;;;;;;;;;;;;24.52;52.80;100499.00;7408206;19;1655;-60
2022/08/13 02:52:21;;;;;;;;;;;;;;;24.55;52.67;100490.53;7408238;19;1609;-60
2022/08/13 02:54:51;;;;;;;;;;;;;;;24.55;52.78;100506.75;7407720;19;1666;-60
2022/08/13 02:57:22;;;;;;;;;;;;;;;24.53;52.50;100494.41;7407401;19;1476;-60
2022/08/13 02:59:50;;;;;;;;;;;;;;;24.54;52.87;100488.84;7407430;19;1403;-60
2022/08/13 03:02:19;;;;;;;;;;;;;;;24.51;52.84;100494.63;7407265;19;1436;-60
2022/08/13 03:04:49;;;;;;;;;;;;;;;24.50;53.05;100498.31;7406672;19;1857;-60
2022/08/13 03:07:19;;;;;;;;;;;;;;;24.52;52.57;100504.41;7407027;19;1447;-60
2022/08/13 03:09:48;;;;;;;;;;;;;;;24.52;52.56;100492.75;7406085;19;1195;-60
2022/08/13 03:12:20;;;;;;;;;;;;;;;24.51;53.13;100491.91;7406622;19;1539;-61
2022/08/13 03:14:52;;;;;;;;;;;;;;;24.53;52.86;100503.38;7408208;19;1609;-60
2022/08/13 03:17:21;;;;;;;;;;;;;;;24.54;52.84;100490.72;7407100;19;1516;-59
2022/08/13 03:19:50;;;;;;;;;;;;;;;24.53;53.26;100494.41;7408325;19;1530;-60
2022/08/13 03:22:19;;;;;;;;;;;;;;;24.54;52.99;100515.88;7407106;19;1428;-60
2022/08/13 03:24:47;;;;;;;;;;;;;;;24.56;53.07;100500.31;7404532;19;1849;-60
2022/08/13 03:27:15;;;;;;;;;;;;;;;24.53;53.17;100500.69;7407224;19;1526;-60
2022/08/13 03:29:44;;;;;;;;;;;;;;;24.53;53.14;100481.75;7407208;19;1535;-60
2022/08/13 03:32:16;;;;;;;;;;;;;;;24.53;53.49;100506.09;7407757;19;1526;-60
2022/08/13 03:34:45;;;;;;;;;;;;;;;24.53;53.42;100502.53;7407084;19;1693;-60
2022/08/13 03:37:13;;;;;;;;;;;;;;;24.51;53.28;100494.63;7400867;19;1503;-60
2022/08/13 03:39:41;;;;;;;;;;;;;;;24.51;53.22;100485.66;7406692;19;1602;-60
2022/08/13 03:42:10;;;;;;;;;;;;;;;24.50;53.19;100505.56;7408176;19;926;-60
2022/08/13 03:44:38;;;;;;;;;;;;;;;24.49;53.27;100499.34;7405918;19;1833;-60
2022/08/13 03:47:07;;;;;;;;;;;;;;;24.50;53.19;100490.22;7406437;19;1718;-60
2022/08/13 03:49:39;;;;;;;;;;;;;;;24.56;53.19;100515.69;7407412;19;1548;-60
2022/08/13 03:52:07;;;;;;;;;;;;;;;24.48;53.43;100492.22;7407632;19;1008;-60
2022/08/13 03:54:36;;;;;;;;;;;;;;;24.52;53.30;100498.16;7406986;19;1523;-60
2022/08/13 03:57:04;;;;;;;;;;;;;;;24.53;53.07;100500.69;7406109;19;1619;-60
2022/08/13 03:59:33;;;;;;;;;;;;;;;24.51;53.14;100496.47;7405573;19;1567;-59
2022/08/13 04:02:01;;;;;;;;;;;;;;;24.56;52.97;100494.91;7405560;19;1536;-60
2022/08/13 04:04:29;;;;;;;;;;;;;;;24.55;52.94;100501.34;7406280;19;1859;-60
2022/08/13 04:07:00;;;;;;;;;;;;;;;24.56;52.68;100504.88;7404104;19;1547;-55
2022/08/13 04:09:29;;;;;;;;;;;;;;;24.56;52.91;100494.91;7402675;19;1307;-59
2022/08/13 04:11:57;;;;;;;;;;;;;;;24.56;52.89;100504.88;7402366;19;1288;-60
2022/08/13 04:14:25;;;;;;;;;;;;;;;24.60;52.97;100490.81;7404458;19;1326;-60
2022/08/13 04:16:54;;;;;;;;;;;;;;;24.63;52.57;100484.25;7405250;19;1332;-59
2022/08/13 04:19:23;;;;;;;;;;;;;;;24.69;52.76;100488.06;7405655;19;1107;-59
2022/08/13 04:21:51;;;;;;;;;;;;;;;24.71;52.57;100492.28;7402331;19;1321;-60
2022/08/13 04:24:22;;;;;;;;;;;;;;;24.77;52.74;100477.19;7403486;19;1847;-60
2022/08/13 04:26:50;;;;;;;;;;;;;;;24.81;52.91;100492.88;7404556;19;1270;-60
2022/08/13 04:29:19;;;;;;;;;;;;;;;24.91;52.39;100484.53;7404870;19;1307;-60
2022/08/13 04:31:47;;;;;;;;;;;;;;;24.94;52.51;100481.44;7404854;19;1535;-60
2022/08/13 04:34:16;;;;;;;;;;;;;;;24.99;52.57;100481.75;7405361;19;1527;-60
2022/08/13 04:36:44;;;;;;;;;;;;;;;24.97;52.47;100481.09;7404928;19;1747;-60
2022/08/13 04:39:13;;;;;;;;;;;;;;;24.96;52.64;100487.50;7404731;19;1571;-60
2022/08/13 04:41:44;;;;;;;;;;;;;;;24.95;52.64;100483.13;7404542;19;1679;-60
2022/08/13 04:44:12;;;;;;;;;;;;;;;24.94;52.83;100486.84;7404963;19;1370;-60
2022/08/13 04:46:41;;;;;;;;;;;;;;;24.91;52.97;100481.81;7404623;19;1662;-60
2022/08/13 04:49:10;;;;;;;;;;;;;;;24.92;52.82;100493.47;7402579;19;1559;-60
2022/08/13 04:51:38;;;;;;;;;;;;;;;24.90;53.03;100480.13;7404519;19;1406;-60
2022/08/13 04:54:07;;;;;;;;;;;;;;;24.87;52.87;100469.69;7404561;19;1618;-60
2022/08/13 04:56:35;;;;;;;;;;;;;;;24.90;52.79;100476.59;7403755;19;1566;-60
2022/08/13 04:59:08;;;;;;;;;;;;;;;24.92;53.08;100469.13;7403652;19;1613;-60
2022/08/13 05:01:36;;;;;;;;;;;;;;;24.91;53.16;100476.41;7404263;19;1610;-60
2022/08/13 05:04:05;;;;;;;;;;;;;;;24.95;53.20;100483.13;7405228;19;961;-60
2022/08/13 05:06:33;;;;;;;;;;;;;;;24.98;52.93;100490.03;7399850;19;1845;-60
2022/08/13 05:09:03;;;;;;;;;;;;;;;24.97;53.14;100489.22;7404065;19;1531;-60
2022/08/13 05:11:31;;;;;;;;;;;;;;;24.99;52.91;100481.75;7403747;19;1538;-60
2022/08/13 05:14:00;;;;;;;;;;;;;;;25.02;53.54;100473.25;7404782;19;1582;-60
2022/08/13 05:16:31;;;;;;;;;;;;;;;25.05;53.31;100482.03;7403723;19;1544;-60
2022/08/13 05:18:59;;;;;;;;;;;;;;;24.97;53.43;100470.28;7404964;19;1067;-60
2022/08/13 05:21:27;;;;;;;;;;;;;;;25.06;53.64;100484.56;7403088;19;1666;-60
2022/08/13 05:23:56;;;;;;;;;;;;;;;25.07;53.46;100475.44;7402640;19;1505;-60
2022/08/13 05:26:25;;;;;;;;;;;;;;;25.10;53.37;100485.88;7402411;19;1855;-60
2022/08/13 05:28:53;;;;;;;;;;;;;;;25.14;53.45;100479.06;7403213;19;1409;-60
2022/08/13 05:31:22;;;;;;;;;;;;;;;25.13;53.45;100465.75;7402957;19;1518;-60
2022/08/13 05:33:53;;;;;;;;;;;;;;;25.16;53.37;100468.06;7403262;19;1610;-60
2022/08/13 05:36:22;;;;;;;;;;;;;;;25.15;53.52;100467.22;7402786;19;1574;-60
2022/08/13 05:38:54;;;;;;;;;;;;;;;25.24;53.50;100480.72;7402441;19;1710;-60
2022/08/13 05:41:23;;;;;;;;;;;;;;;25.21;53.23;100471.06;7404066;19;1609;-60
2022/08/13 05:43:52;;;;;;;;;;;;;;;25.23;53.23;100474.47;7402496;19;1536;-60
2022/08/13 05:46:21;;;;;;;;;;;;;;;25.31;53.37;100481.69;7400076;19;1849;-60
2022/08/13 05:48:58;;;;;;;;;;;;;;;25.27;53.51;100470.38;7402070;19;1547;-59
2022/08/13 05:51:31;;;;;;;;;;;;;;;25.28;53.72;100485.56;7401914;19;1527;-60
2022/08/13 05:54:00;;;;;;;;;;;;;;;25.27;53.84;100469.50;7402282;19;1862;-60
2022/08/13 05:56:32;;;;;;;;;;;;;;;25.26;53.91;100473.25;7402817;19;1390;-60
2022/08/13 05:59:01;;;;;;;;;;;;;;;25.26;53.69;100471.38;7403243;19;1586;-60
2022/08/13 06:04:14;;;;;;;;;;;;;;;25.27;53.78;100480.34;7411466;19;697;-60
2022/08/13 06:06:45;;;;;;;;;;;;;;;25.30;54.10;100488.09;7405385;19;1849;-60
2022/08/13 06:09:13;;;;;;;;;;;;;;;25.33;53.80;100485.03;7408687;19;1538;-55
2022/08/13 06:11:43;;;;;;;;;;;;;;;25.31;53.96;100470.84;7408676;19;1317;-55
2022/08/13 06:14:20;;;;;;;;;;;;;;;25.34;53.93;100476.72;7408911;19;1310;-55
2022/08/13 06:16:49;;;;;;;;;;;;;;;25.34;53.84;100463.19;7407847;19;1850;-56
2022/08/13 06:19:17;;;;;;;;;;;;;;;25.39;53.93;100482.41;7410477;19;997;-55
2022/08/13 06:21:49;;;;;;;;;;;;;;;25.40;53.84;100475.13;7408920;19;1673;-55
2022/08/13 06:24:18;;;;;;;;;;;;;;;25.33;53.93;100464.22;7407054;19;1575;-56
2022/08/13 06:26:50;;;;;;;;;;;;;;;25.44;54.18;100487.28;7406396;19;1856;-56
2022/08/13 06:29:19;;;;;;;;;;;;;;;25.39;55.61;100465.34;7408560;19;1485;-56
2022/08/13 06:31:47;;;;;;;;;;;;;;;25.48;54.95;100468.81;7408573;19;1538;-57
2022/08/13 06:34:17;;;;;;;;;;;;;;;25.49;54.74;100462.38;7409153;19;1610;-56
2022/08/13 06:36:45;;;;;;;;;;;;;;;25.49;54.72;100452.38;7407782;19;1546;-56
2022/08/13 06:39:18;;;;;;;;;;;;;;;25.49;55.79;100462.38;7408335;19;1621;-57
2022/08/13 06:41:47;;;;;;;;;;;;;;;25.54;56.23;100454.50;7408254;19;1444;-56
2022/08/13 06:44:16;;;;;;;;;;;;;;;25.55;56.19;100439.97;7408838;19;1523;-59
2022/08/13 06:46:44;;;;;;;;;;;;;;;25.58;55.96;100443.13;7405104;19;1894;-62
2022/08/13 06:49:13;;;;;;;;;;;;;;;25.67;55.66;100440.34;7408865;19;1655;-64
2022/08/13 06:51:42;;;;;;;;;;;;;;;25.71;55.79;100442.47;7408244;19;1877;-63
2022/08/13 06:54:11;;;;;;;;;;;;;;;25.73;55.97;100440.41;7408272;19;1587;-58
2022/08/13 06:56:42;;;;;;;;;;;;;;;25.78;56.16;100437.13;7407761;19;1542;-66
2022/08/13 06:59:13;;;;;;;;;;;;;;;25.72;56.63;100457.69;7406685;19;1587;-68
2022/08/13 07:01:43;;;;;;;;;;;;;;;25.84;57.13;100439.09;7408107;19;1320;-63
2022/08/13 07:04:13;;;;;;;;;;;;;;;25.78;58.19;100445.25;7407774;19;1212;-62
2022/08/13 07:06:44;;;;;;;;;;;;;;;25.72;58.69;100456.84;7405118;19;1892;-61
2022/08/13 07:09:12;;;;;;;;;;;;;;;25.73;59.13;100432.28;7405353;19;1258;-60
2022/08/13 07:11:45;;;;;;;;;;;;;;;25.79;58.07;100439.66;7407756;19;1613;-62
2022/08/13 07:14:15;;;;;;;;;;;;;;;25.80;57.97;100441.34;7407283;19;1681;-60
2022/08/13 07:16:44;;;;;;;;;;;;;;;25.79;58.33;100434.25;7405442;19;1516;-65
2022/08/13 07:19:14;;;;;;;;;;;;;;;25.76;58.78;100436.47;7407472;19;1444;-61
2022/08/13 07:21:43;;;;;;;;;;;;;;;25.75;59.37;100397.72;7408212;19;1293;-64
2022/08/13 07:24:13;;;;;;;;;;;;;;;25.74;60.12;100430.41;7405720;19;1525;-63
2022/08/13 07:26:45;;;;;;;;;;;;;;;25.77;59.94;100422.75;7405017;19;1849;-60
2022/08/13 07:29:14;;;;;;;;;;;;;;;25.80;60.28;100418.81;7406786;19;1619;-61
2022/08/13 07:31:43;;;;;;;;;;;;;;;25.89;60.14;100422.28;7406443;19;1519;-60
2022/08/13 07:34:11;;;;;;;;;;;;;;;25.95;60.04;100418.84;7406386;19;1273;-64
2022/08/13 07:36:40;;;;;;;;;;;;;;;25.93;59.39;100410.06;7406540;19;1524;-59
2022/08/13 07:39:10;;;;;;;;;;;;;;;25.92;59.29;100414.63;7406211;19;1412;-63
2022/08/13 07:41:41;;;;;;;;;;;;;;;25.93;59.33;100412.78;7407701;19;1645;-61
2022/08/13 07:44:15;;;;;;;;;;;;;;;25.95;59.50;100426.97;7407674;19;1638;-62
2022/08/13 07:46:44;;;;;;;;;;;;;;;25.92;58.90;100419.22;7405242;19;1853;-62
2022/08/13 07:49:13;;;;;;;;;;;;;;;25.91;58.11;100412.13;7405626;19;1543;-60
2022/08/13 07:51:43;;;;;;;;;;;;;;;26.01;58.67;100434.34;7405880;19;1555;-63
2022/08/13 07:54:12;;;;;;;;;;;;;;;25.96;58.31;100402.41;7399733;19;1282;-62
2022/08/13 07:56:47;;;;;;;;;;;;;;;25.96;58.12;100413.25;7404470;19;1246;-60
2022/08/13 07:59:19;;;;;;;;;;;;;;;26.00;58.69;100427.22;7405587;19;1367;-60
2022/08/13 08:01:48;;;;;;;;;;;;;;;25.96;58.44;100425.94;7405771;19;1373;-60
2022/08/13 08:04:17;;;;;;;;;;;;;;;25.91;58.84;100412.13;7406461;19;1369;-65
2022/08/13 08:06:47;;;;;;;;;;;;;;;25.92;58.21;100421.91;7404634;19;1872;-69
2022/08/13 08:09:18;;;;;;;;;;;;;;;25.90;57.95;100404.97;7404708;19;1389;-64
2022/08/13 08:14:30;;;;;;;;;;;;;;;25.84;58.24;100400.31;7402396;19;1110;-63
2022/08/13 08:16:59;;;;;;;;;;;;;;;25.93;58.34;100391.09;7404105;19;1219;-64
2022/08/13 08:19:27;;;;;;;;;;;;;;;25.96;58.60;100388.00;7405795;19;1535;-63
2022/08/13 08:21:59;;;;;;;;;;;;;;;26.01;58.62;100377.44;7406069;19;1546;-66
2022/08/13 08:24:32;;;;;;;;;;;;;;;26.02;59.27;100378.25;7404019;19;1650;-70
2022/08/13 08:27:03;;;;;;;;;;;;;;;26.05;58.90;100372.47;7405081;19;1830;-62
2022/08/13 08:29:35;;;;;;;;;;;;;;;26.05;58.76;100381.44;7406161;19;1578;-61
2022/08/13 08:32:08;;;;;;;;;;;;;;;26.04;58.73;100379.75;7404842;19;1349;-63
2022/08/13 08:34:37;;;;;;;;;;;;;;;26.03;59.23;100378.09;7404372;19;1752;-64
2022/08/13 08:37:05;;;;;;;;;;;;;;;26.04;58.32;100368.91;7403054;19;1665;-66
2022/08/13 08:45:00;;;;;;;;;;;;;;;26.11;58.88;100364.41;7402569;19;1435;-65
2022/08/13 08:47:30;;;;;;;;;;;;;;;26.08;58.68;100348.53;7404207;19;1864;-60
2022/08/13 08:49:59;;;;;;;;;;;;;;;26.07;59.18;100346.03;7405369;19;1323;-69
2022/08/13 08:53:19;;;;;;;;;;;;;;;26.16;59.08;100363.81;7405305;19;1740;-61
2022/08/13 08:55:18;;;;;;;;;;;;;;;26.23;58.80;100336.81;7404205;19;1574;-62
2022/08/13 08:57:47;;;;;;;;;;;;;;;26.18;58.41;100357.19;7404253;19;1429;-67
2022/08/13 09:00:19;;;;;;;;;;;;;;;26.17;58.17;100335.72;7404404;19;1521;-62
2022/08/13 09:02:50;;;;;;;;;;;;;;;26.23;57.67;100339.50;7403540;19;1311;-70
2022/08/13 09:05:20;;;;;;;;;;;;;;;26.23;57.79;100348.47;7405131;19;988;-65
2022/08/13 09:07:49;;;;;;;;;;;;;;;26.27;57.21;100343.50;7402573;19;1863;-62
2022/08/13 09:10:19;;;;;;;;;;;;;;;26.29;58.25;100339.56;7404420;19;1608;-65
2022/08/13 09:12:48;;;;;;;;;;;;;;;26.29;57.71;100341.44;7403075;19;1609;-59
2022/08/13 09:15:23;;;;;;;;;;;;;;;26.11;57.62;100326.47;7402286;19;1309;-61
2022/08/13 09:17:53;;;;;;;;;;;;;;;26.07;58.00;100337.91;7402460;19;1234;-58
2022/08/13 09:20:23;;;;;;;;;;;;;;;26.04;58.03;100336.38;7403131;19;1231;-58
2022/08/13 09:23:03;;;;;;;;;;;;;;;25.92;57.83;100319.81;7401834;19;1469;-66
2022/08/13 09:25:32;;;;;;;;;;;;;;;25.92;58.31;100313.56;7401758;19;1551;-63
2022/08/13 09:28:03;;;;;;;;;;;;;;;25.95;58.58;100327.56;7401775;19;1851;-69
2022/08/13 09:30:34;;;;;;;;;;;;;;;25.93;58.20;100307.13;7403563;19;1560;-70
2022/08/13 09:33:03;;;;;;;;;;;;;;;25.95;58.37;100318.59;7402995;19;1395;-61
2022/08/13 09:35:32;;;;;;;;;;;;;;;25.96;58.16;100306.72;7404365;19;1427;-60
2022/08/13 09:38:03;;;;;;;;;;;;;;;26.01;57.89;100315.13;7408155;19;1275;-62
2022/08/13 09:40:32;;;;;;;;;;;;;;;26.06;57.40;100299.09;7410139;19;1357;-61
2022/08/13 09:43:02;;;;;;;;;;;;;;;26.07;57.00;100306.22;7409101;19;1339;-63
2022/08/13 09:45:33;;;;;;;;;;;;;;;25.96;57.30;100301.31;7410146;19;1630;-63
2022/08/13 09:48:08;;;;;;;;;;;;;;;25.95;57.68;100299.63;7407658;19;1861;-61
2022/08/13 09:50:37;;;;;;;;;;;;;;;25.86;58.52;100293.47;7411228;19;1645;-64
2022/08/13 09:53:06;;;;;;;;;;;;;;;25.07;59.41;100296.88;7409584;19;1537;-64
2022/08/13 09:55:37;;;;;;;;;;;;;;;24.05;59.27;100291.88;7410658;19;1619;-62
2022/08/13 09:58:08;;;;;;;;;;;;;;;23.48;58.94;100305.72;7410210;19;1623;-59
2022/08/13 10:00:36;;;;;;;;;;;;;;;23.20;57.59;100298.09;7409424;19;1428;-61
2022/08/13 10:03:10;;;;;;;;;;;;;;;23.17;56.47;100293.88;7408540;19;1601;-59
2022/08/13 10:05:39;;;;;;;;;;;;;;;22.97;56.49;100276.38;7408521;19;1344;-58
2022/08/13 10:08:08;;;;;;;;;;;;;;;23.23;56.50;100295.03;7406527;19;1829;-71
2022/08/13 10:10:37;;;;;;;;;;;;;;;23.57;57.62;100288.47;7409826;19;1744;-59
2022/08/13 10:13:05;;;;;;;;;;;;;;;23.61;59.00;100277.13;7409731;19;1618;-62
2022/08/13 10:15:33;;;;;;;;;;;;;;;23.61;60.04;100284.38;7409034;19;1617;-66
2022/08/13 10:18:03;;;;;;;;;;;;;;;23.61;60.54;100284.38;7409770;19;1531;-60
2022/08/13 10:20:36;;;;;;;;;;;;;;;23.73;60.60;100287.53;7409552;19;1784;-59
2022/08/13 10:23:05;;;;;;;;;;;;;;;24.43;59.06;100278.38;7408994;19;1776;-59
2022/08/13 10:25:33;;;;;;;;;;;;;;;24.89;57.99;100289.13;7409759;19;1618;-62
2022/08/13 10:28:02;;;;;;;;;;;;;;;25.14;59.20;100269.88;7407141;19;1900;-57
2022/08/13 10:30:30;;;;;;;;;;;;;;;25.27;58.74;100275.50;7408713;19;1601;-58
2022/08/13 10:32:59;;;;;;;;;;;;;;;25.38;58.81;100276.88;7405030;19;1756;-59
2022/08/13 10:35:28;;;;;;;;;;;;;;;25.41;59.12;100262.97;7402071;19;1511;-60
2022/08/13 10:38:00;;;;;;;;;;;;;;;25.44;58.43;100253.63;7403779;19;1857;-64
2022/08/13 10:40:28;;;;;;;;;;;;;;;25.56;59.30;100257.50;7407854;19;1682;-61
2022/08/13 10:42:57;;;;;;;;;;;;;;;25.55;58.88;100266.69;7408438;19;1522;-60
2022/08/13 10:45:26;;;;;;;;;;;;;;;25.58;58.77;100269.81;7408709;19;1232;-58
2022/08/13 10:47:55;;;;;;;;;;;;;;;25.51;59.53;100276.22;7405500;19;1865;-65
2022/08/13 10:50:26;;;;;;;;;;;;;;;25.49;59.85;100262.03;7406980;19;1661;-58
2022/08/13 10:52:54;;;;;;;;;;;;;;;25.13;61.46;100270.94;7408424;19;1329;-57
2022/08/13 10:55:26;;;;;;;;;;;;;;;24.40;60.86;100257.16;7406373;19;1691;-57
2022/08/13 10:57:54;;;;;;;;;;;;;;;24.09;59.88;100266.19;7407417;19;1617;-61
2022/08/13 11:00:23;;;;;;;;;;;;;;;23.91;59.32;100276.47;7405905;19;1287;-58
2022/08/13 11:02:51;;;;;;;;;;;;;;;23.69;58.35;100251.94;7405794;19;1297;-56
2022/08/13 11:05:22;;;;;;;;;;;;;;;23.50;58.35;100242.47;7407627;19;1302;-59
2022/08/13 11:07:51;;;;;;;;;;;;;;;23.53;58.18;100254.75;7404925;19;1849;-55
2022/08/13 11:10:20;;;;;;;;;;;;;;;23.47;58.25;100255.47;7406611;19;1333;-55
2022/08/13 11:12:52;;;;;;;;;;;;;;;23.51;58.81;100246.00;7402108;19;1305;-56
2022/08/13 11:15:22;;;;;;;;;;;;;;;23.60;59.83;100263.81;7406571;19;1293;-56
2022/08/13 11:17:53;;;;;;;;;;;;;;;23.62;59.96;100241.03;7406520;19;1361;-55
2022/08/13 11:20:24;;;;;;;;;;;;;;;23.60;60.75;100239.53;7407610;19;1653;-56
2022/08/13 11:22:54;;;;;;;;;;;;;;;23.62;60.79;100226.69;7407926;19;1539;-55
2022/08/13 11:25:23;;;;;;;;;;;;;;;23.69;60.99;100238.44;7407319;19;1685;-55
2022/08/13 11:27:54;;;;;;;;;;;;;;;23.84;60.98;100224.22;7405453;19;1830;-58
2022/08/13 11:30:23;;;;;;;;;;;;;;;23.91;60.87;100230.56;7406147;19;1518;-55
2022/08/13 11:32:51;;;;;;;;;;;;;;;23.84;61.04;100235.03;7403973;19;1226;-56
2022/08/13 11:35:20;;;;;;;;;;;;;;;23.74;61.38;100219.03;7406969;19;1241;-55
2022/08/13 11:37:49;;;;;;;;;;;;;;;23.76;61.57;100234.00;7405652;19;1393;-55
2022/08/13 11:40:17;;;;;;;;;;;;;;;23.78;61.36;100232.00;7404899;19;1253;-55
2022/08/13 11:42:45;;;;;;;;;;;;;;;23.61;61.56;100219.59;7405882;19;1496;-55
2022/08/13 11:45:16;;;;;;;;;;;;;;;23.62;61.54;100215.91;7405462;19;1243;-56
2022/08/13 11:47:45;;;;;;;;;;;;;;;23.52;61.48;100209.91;7405188;19;1867;-55
2022/08/13 11:50:13;;;;;;;;;;;;;;;23.61;61.68;100216.91;7404908;19;1180;-56
2022/08/13 11:52:41;;;;;;;;;;;;;;;23.55;61.19;100204.13;7403386;19;1629;-55
2022/08/13 11:55:10;;;;;;;;;;;;;;;23.61;61.48;100211.50;7398711;19;1400;-55
2022/08/13 11:57:40;;;;;;;;;;;;;;;23.70;61.14;100193.41;7403795;19;1161;-61
2022/08/13 12:00:09;;;;;;;;;;;;;;;23.61;60.87;100200.72;7403177;19;1227;-59
2022/08/13 12:02:40;;;;;;;;;;;;;;;23.46;61.35;100199.78;7401446;19;1618;-56
2022/08/13 12:05:08;;;;;;;;;;;;;;;23.36;61.32;100203.59;7403393;19;1547;-60
2022/08/13 12:07:41;;;;;;;;;;;;;;;23.42;61.36;100193.94;7401027;19;1853;-60
2022/08/13 12:10:10;;;;;;;;;;;;;;;23.44;61.06;100181.13;7403626;19;1406;-55
2022/08/13 12:12:38;;;;;;;;;;;;;;;23.56;60.43;100168.88;7401428;19;1346;-59
2022/08/13 12:15:07;;;;;;;;;;;;;;;23.58;60.35;100176.81;7403202;19;1562;-55
2022/08/13 12:17:35;;;;;;;;;;;;;;;23.58;60.23;100199.22;7405068;19;1493;-62
2022/08/13 12:20:08;;;;;;;;;;;;;;;23.69;60.15;100189.84;7399933;19;1761;-60
2022/08/13 12:22:36;;;;;;;;;;;;;;;23.76;59.86;100173.78;7397798;19;1517;-55
2022/08/13 12:25:04;;;;;;;;;;;;;;;23.72;59.97;100159.81;7401868;19;1414;-54
2022/08/13 12:27:33;;;;;;;;;;;;;;;23.63;60.39;100166.28;7400471;19;1854;-54
2022/08/13 12:30:01;;;;;;;;;;;;;;;23.54;60.51;100153.88;7403952;19;1350;-56
2022/08/13 12:32:30;;;;;;;;;;;;;;;23.69;60.09;100168.25;7404833;19;1339;-54
2022/08/13 12:34:58;;;;;;;;;;;;;;;23.65;60.22;100156.13;7405261;19;1025;-55
2022/08/13 12:37:29;;;;;;;;;;;;;;;23.57;60.71;100175.09;7402339;19;1332;-60
2022/08/13 12:39:58;;;;;;;;;;;;;;;23.43;60.90;100147.88;7404703;19;1433;-59
2022/08/13 12:42:28;;;;;;;;;;;;;;;23.44;61.02;100162.22;7403973;19;1480;-58
2022/08/13 12:44:56;;;;;;;;;;;;;;;23.47;60.66;100169.09;7403534;19;1258;-55
2022/08/13 12:47:25;;;;;;;;;;;;;;;23.37;61.20;100153.97;7403675;19;1858;-54
2022/08/13 12:49:53;;;;;;;;;;;;;;;23.44;60.52;100146.03;7402944;19;1753;-59
2022/08/13 12:52:21;;;;;;;;;;;;;;;23.53;60.44;100146.78;7403087;19;1714;-57
2022/08/13 12:54:52;;;;;;;;;;;;;;;23.49;60.35;100140.09;7402893;19;1558;-55
2022/08/13 12:57:21;;;;;;;;;;;;;;;23.45;60.28;100144.16;7401911;19;1342;-56
2022/08/13 12:59:49;;;;;;;;;;;;;;;23.16;61.17;100132.22;7403661;19;1487;-57
2022/08/13 13:02:17;;;;;;;;;;;;;;;23.01;61.43;100149.13;7401159;19;1523;-59
2022/08/13 13:04:46;;;;;;;;;;;;;;;23.13;61.65;100141.50;7400457;19;1504;-58
2022/08/13 13:07:14;;;;;;;;;;;;;;;23.23;60.67;100130.47;7400802;19;1856;-60
2022/08/13 13:09:43;;;;;;;;;;;;;;;23.38;59.75;100134.09;7405715;19;1332;-58
2022/08/13 13:12:14;;;;;;;;;;;;;;;23.38;59.91;100133.25;7409689;19;1519;-59
2022/08/13 13:14:42;;;;;;;;;;;;;;;23.63;61.27;100129.34;7410659;19;1222;-59
2022/08/13 13:17:10;;;;;;;;;;;;;;;23.88;61.31;100129.16;7411374;19;1207;-59